createdAt,value
2022-08-27T00:02:20.602Z,21.15
2022-08-27T00:04:50.994Z,21.17
2022-08-27T00:07:19.603Z,21.09
2022-08-27T00:09:47.708Z,21.03
2022-08-27T00:12:16.240Z,21.00
2022-08-27T00:14:44.459Z,20.98
2022-08-27T00:17:13.000Z,21.00
2022-08-27T00:19:42.456Z,21.03
2022-08-27T00:22:12.019Z,20.83
2022-08-27T00:24:46.404Z,20.80
2022-08-27T00:27:18.526Z,20.79
2022-08-27T00:29:48.202Z,20.77
2022-08-27T00:32:16.758Z,20.66
2022-08-27T00:34:45.523Z,20.68
2022-08-27T00:37:14.590Z,20.58
2022-08-27T00:39:42.728Z,20.54
2022-08-27T00:42:12.062Z,20.57
2022-08-27T00:44:40.314Z,20.61
2022-08-27T00:47:17.344Z,20.42
2022-08-27T00:49:56.305Z,20.35
2022-08-27T00:52:29.882Z,20.26
2022-08-27T00:55:08.598Z,20.34
2022-08-27T00:57:39.171Z,20.39
2022-08-27T01:00:14.377Z,20.27
2022-08-27T01:02:43.587Z,20.23
2022-08-27T01:05:15.764Z,20.16
2022-08-27T01:07:47.891Z,20.06
2022-08-27T01:10:20.108Z,20.10
2022-08-27T01:12:53.692Z,19.94
2022-08-27T01:15:24.731Z,19.94
2022-08-27T01:17:53.960Z,19.86
2022-08-27T01:20:31.122Z,19.92
2022-08-27T01:23:02.627Z,19.89
2022-08-27T01:25:31.584Z,19.87
2022-08-27T01:28:01.861Z,19.69
2022-08-27T01:30:31.428Z,19.67
2022-08-27T01:32:59.974Z,19.52
2022-08-27T01:35:28.306Z,19.59
2022-08-27T01:37:57.068Z,19.56
2022-08-27T01:40:25.856Z,19.43
2022-08-27T01:42:56.726Z,19.56
2022-08-27T01:45:34.060Z,19.43
2022-08-27T01:48:03.151Z,19.43
2022-08-27T01:50:38.846Z,19.45
2022-08-27T01:53:15.218Z,19.14
2022-08-27T01:55:47.533Z,18.96
2022-08-27T01:58:18.621Z,19.05
2022-08-27T02:00:56.136Z,19.10
2022-08-27T02:03:25.537Z,19.23
2022-08-27T02:05:54.754Z,19.11
2022-08-27T02:08:22.870Z,19.17
2022-08-27T02:10:51.918Z,19.30
2022-08-27T02:13:20.592Z,19.27
2022-08-27T02:15:48.997Z,19.23
2022-08-27T02:18:18.214Z,18.96
2022-08-27T02:20:48.127Z,19.08
2022-08-27T02:23:19.268Z,19.03
2022-08-27T02:25:47.835Z,19.22
2022-08-27T02:28:16.659Z,19.13
2022-08-27T02:30:44.947Z,19.10
2022-08-27T02:33:13.604Z,19.19
2022-08-27T02:35:44.199Z,19.18
2022-08-27T02:38:14.183Z,18.97
2022-08-27T02:40:42.807Z,19.06
2022-08-27T02:43:15.830Z,19.00
2022-08-27T02:45:44.928Z,18.77
2022-08-27T02:48:13.669Z,18.72
2022-08-27T02:50:43.630Z,18.78
2022-08-27T02:53:12.225Z,18.74
2022-08-27T02:55:40.532Z,18.93
2022-08-27T02:58:09.718Z,18.94
2022-08-27T03:00:38.493Z,18.98
2022-08-27T03:03:06.822Z,18.89
2022-08-27T03:05:35.055Z,18.97
2022-08-27T03:08:05.590Z,19.03
2022-08-27T03:10:33.819Z,18.87
2022-08-27T03:13:02.223Z,19.01
2022-08-27T03:15:30.705Z,19.01
2022-08-27T03:18:17.542Z,19.00
2022-08-27T03:20:53.451Z,19.03
2022-08-27T03:23:25.080Z,18.97
2022-08-27T03:25:56.882Z,19.01
2022-08-27T03:28:28.678Z,18.97
2022-08-27T03:31:03.408Z,18.98
2022-08-27T03:33:38.095Z,18.95
2022-08-27T03:36:08.983Z,18.92
2022-08-27T03:38:38.075Z,18.83
2022-08-27T03:41:06.693Z,18.87
2022-08-27T03:43:36.048Z,18.92
2022-08-27T03:46:04.198Z,18.80
2022-08-27T03:48:34.258Z,18.85
2022-08-27T03:51:12.293Z,18.82
2022-08-27T03:53:42.649Z,18.89
2022-08-27T03:56:11.359Z,18.84
2022-08-27T03:58:39.853Z,18.80
2022-08-27T04:01:08.925Z,18.89
2022-08-27T04:03:37.914Z,18.93
2022-08-27T04:06:06.539Z,19.00
2022-08-27T04:08:34.740Z,18.99
2022-08-27T04:11:07.985Z,18.94
2022-08-27T04:13:36.924Z,18.99
2022-08-27T04:16:05.973Z,18.96
2022-08-27T04:18:34.337Z,19.03
2022-08-27T04:21:13.887Z,19.01
2022-08-27T04:23:43.427Z,19.05
2022-08-27T04:26:14.902Z,19.13
2022-08-27T04:28:46.643Z,19.22
2022-08-27T04:31:17.481Z,19.17
2022-08-27T04:33:50.694Z,19.30
2022-08-27T04:36:20.584Z,19.27
2022-08-27T04:38:49.794Z,19.18
2022-08-27T04:41:21.523Z,19.27
2022-08-27T04:43:58.841Z,19.37
2022-08-27T04:46:30.587Z,19.38
2022-08-27T04:49:02.729Z,19.27
2022-08-27T04:51:35.736Z,19.29
2022-08-27T04:54:06.717Z,19.32
2022-08-27T04:56:36.466Z,19.29
2022-08-27T04:59:08.142Z,19.37
2022-08-27T05:01:38.471Z,19.42
2022-08-27T05:04:07.902Z,19.40
2022-08-27T05:06:36.932Z,19.40
2022-08-27T05:09:06.183Z,19.49
2022-08-27T05:11:34.990Z,19.35
2022-08-27T05:14:10.021Z,19.19
2022-08-27T05:16:39.424Z,19.12
2022-08-27T05:19:10.431Z,19.08
2022-08-27T05:21:43.317Z,19.03
2022-08-27T05:24:11.746Z,18.94
2022-08-27T05:26:40.239Z,18.88
2022-08-27T05:29:08.574Z,19.03
2022-08-27T05:31:37.889Z,19.01
2022-08-27T05:34:10.540Z,19.07
2022-08-27T05:36:48.766Z,19.32
2022-08-27T05:39:17.860Z,19.52
2022-08-27T05:41:46.162Z,19.67
2022-08-27T05:47:04.097Z,19.96
2022-08-27T05:49:32.455Z,20.02
2022-08-27T05:52:00.578Z,20.10
2022-08-27T05:54:29.044Z,20.18
2022-08-27T05:56:57.302Z,20.29
2022-08-27T05:59:44.153Z,20.41
2022-08-27T06:02:12.781Z,20.46
2022-08-27T06:04:41.370Z,20.64
2022-08-27T06:07:10.612Z,20.74
2022-08-27T06:09:39.582Z,20.85
2022-08-27T06:12:09.204Z,21.00
2022-08-27T06:14:38.349Z,21.12
2022-08-27T06:17:06.744Z,21.27
2022-08-27T06:19:36.457Z,21.51
2022-08-27T06:22:10.640Z,21.76
2022-08-27T06:24:42.129Z,21.99
2022-08-27T06:27:14.294Z,22.26
2022-08-27T06:29:44.234Z,22.46
2022-08-27T06:32:14.787Z,22.59
2022-08-27T06:34:43.329Z,22.75
2022-08-27T06:37:12.290Z,22.82
2022-08-27T06:39:40.540Z,22.92
2022-08-27T06:42:12.670Z,22.99
2022-08-27T06:44:44.019Z,23.06
2022-08-27T06:47:12.449Z,23.13
2022-08-27T06:49:43.859Z,23.19
2022-08-27T06:52:15.642Z,23.19
2022-08-27T06:54:45.047Z,23.20
2022-08-27T06:57:13.241Z,23.34
2022-08-27T06:59:42.049Z,23.47
2022-08-27T07:02:10.829Z,23.57
2022-08-27T07:04:39.085Z,23.70
2022-08-27T07:07:08.274Z,23.75
2022-08-27T07:09:36.483Z,23.87
2022-08-27T07:12:05.733Z,23.95
2022-08-27T07:14:38.027Z,24.15
2022-08-27T07:17:11.262Z,24.23
2022-08-27T07:19:44.930Z,24.36
2022-08-27T07:22:13.780Z,24.31
2022-08-27T07:24:42.098Z,24.33
2022-08-27T07:27:10.653Z,24.46
2022-08-27T07:29:38.936Z,24.50
2022-08-27T07:32:07.025Z,24.52
2022-08-27T07:34:35.603Z,24.58
2022-08-27T07:37:03.830Z,24.42
2022-08-27T07:39:32.021Z,24.75
2022-08-27T07:42:19.239Z,24.86
2022-08-27T07:44:47.791Z,24.84
2022-08-27T07:47:16.496Z,24.92
2022-08-27T07:49:44.958Z,25.03
2022-08-27T07:52:13.277Z,25.37
2022-08-27T07:54:42.381Z,25.72
2022-08-27T07:57:11.527Z,26.09
2022-08-27T07:59:39.733Z,26.45
2022-08-27T08:02:08.206Z,26.86
2022-08-27T08:04:36.759Z,26.91
2022-08-27T08:07:04.965Z,27.62
2022-08-27T08:09:33.359Z,28.28
2022-08-27T08:12:01.943Z,28.59
2022-08-27T08:14:32.406Z,29.14
2022-08-27T08:17:02.190Z,29.54
2022-08-27T08:19:32.092Z,30.05
2022-08-27T08:22:04.982Z,29.98
2022-08-27T08:24:36.716Z,30.14
2022-08-27T08:27:07.473Z,30.40
2022-08-27T08:29:37.194Z,30.82
2022-08-27T08:32:07.730Z,30.54
2022-08-27T08:34:36.919Z,31.22
2022-08-27T08:37:06.776Z,31.50
2022-08-27T08:39:36.960Z,32.06
2022-08-27T08:42:08.237Z,31.57
2022-08-27T08:44:48.855Z,31.14
2022-08-27T08:47:23.828Z,32.20
2022-08-27T08:50:00.266Z,32.32
2022-08-27T08:52:31.267Z,31.94
2022-08-27T08:55:35.609Z,32.00
2022-08-27T08:58:13.048Z,32.35
2022-08-27T09:00:44.390Z,32.39
2022-08-27T09:03:14.903Z,32.51
2022-08-27T09:05:50.985Z,32.94
2022-08-27T09:08:37.623Z,31.92
2022-08-27T09:11:16.308Z,32.28
2022-08-27T09:14:02.962Z,32.23
2022-08-27T09:16:32.660Z,32.77
2022-08-27T09:19:02.947Z,33.17
2022-08-27T09:21:55.210Z,33.55
2022-08-27T09:24:52.650Z,33.23
2022-08-27T09:27:22.393Z,33.44
2022-08-27T09:29:56.139Z,32.92
2022-08-27T09:32:32.175Z,32.78
2022-08-27T09:35:04.278Z,33.10
2022-08-27T09:37:52.514Z,33.90
2022-08-27T09:40:28.017Z,33.55
2022-08-27T09:43:21.801Z,33.38
2022-08-27T09:45:54.440Z,33.23
2022-08-27T09:48:35.847Z,33.76
2022-08-27T09:51:21.833Z,33.50
2022-08-27T09:53:56.198Z,33.93
2022-08-27T09:56:27.818Z,33.33
2022-08-27T09:59:07.226Z,33.62
2022-08-27T10:01:49.166Z,33.28
2022-08-27T10:04:26.946Z,33.77
2022-08-27T10:06:55.392Z,34.02
2022-08-27T10:09:32.470Z,34.04
2022-08-27T10:12:10.997Z,33.29
2022-08-27T10:14:45.322Z,33.22
2022-08-27T10:17:41.192Z,33.64
2022-08-27T10:20:30.543Z,33.75
2022-08-27T10:23:17.053Z,33.90
2022-08-27T10:26:00.496Z,33.84
2022-08-27T10:28:57.768Z,34.08
2022-08-27T10:31:53.528Z,34.18
2022-08-27T10:34:45.184Z,34.68
2022-08-27T10:37:19.646Z,34.68
2022-08-27T10:39:56.961Z,34.27
2022-08-27T10:43:04.545Z,34.25
2022-08-27T10:46:23.829Z,33.69
2022-08-27T10:49:09.623Z,33.95
2022-08-27T10:52:05.241Z,33.80
2022-08-27T10:54:45.936Z,33.89
2022-08-27T10:57:45.490Z,34.20
2022-08-27T11:00:24.630Z,34.52
2022-08-27T11:03:08.961Z,34.73
2022-08-27T11:05:47.388Z,34.26
2022-08-27T11:08:27.811Z,34.19
2022-08-27T11:11:25.970Z,33.85
2022-08-27T11:13:53.195Z,33.64
2022-08-27T11:16:45.909Z,34.01
2022-08-27T11:19:23.487Z,34.07
2022-08-27T11:22:04.504Z,33.71
2022-08-27T11:24:44.258Z,33.66
2022-08-27T11:27:18.008Z,33.43
2022-08-27T11:30:00.390Z,33.29
2022-08-27T11:32:40.948Z,33.48
2022-08-27T11:35:20.575Z,33.00
2022-08-27T11:38:09.360Z,32.98
2022-08-27T11:40:43.541Z,32.92
2022-08-27T11:43:26.755Z,32.77
2022-08-27T11:45:59.168Z,32.72
2022-08-27T11:48:31.078Z,32.34
2022-08-27T11:51:11.109Z,32.04
2022-08-27T11:53:51.817Z,32.05
2022-08-27T11:56:36.969Z,32.19
2022-08-27T11:59:28.444Z,32.24
2022-08-27T12:02:25.979Z,31.94
2022-08-27T12:05:07.601Z,31.92
2022-08-27T12:07:39.990Z,31.88
2022-08-27T12:10:28.426Z,31.79
2022-08-27T12:13:25.592Z,31.62
2022-08-27T12:16:02.178Z,31.51
2022-08-27T12:18:51.908Z,31.50
2022-08-27T12:21:32.469Z,31.50
2022-08-27T12:24:12.616Z,31.53
2022-08-27T12:26:53.669Z,31.64
2022-08-27T12:29:24.107Z,31.70
2022-08-27T12:31:55.694Z,31.63
2022-08-27T12:34:28.864Z,31.66
2022-08-27T12:36:57.334Z,31.66
2022-08-27T12:39:32.452Z,31.71
2022-08-27T12:42:00.978Z,31.62
2022-08-27T12:44:31.458Z,31.65
2022-08-27T12:47:05.525Z,31.70
2022-08-27T12:49:42.170Z,31.65
2022-08-27T12:52:29.264Z,31.73
2022-08-27T12:55:21.659Z,31.80
2022-08-27T12:58:04.437Z,32.04
2022-08-27T13:01:07.832Z,32.11
2022-08-27T13:03:41.593Z,31.79
2022-08-27T13:06:44.681Z,31.65
2022-08-27T13:09:13.213Z,31.51
2022-08-27T13:11:48.774Z,31.43
2022-08-27T13:14:22.384Z,31.49
2022-08-27T13:17:05.788Z,31.38
2022-08-27T13:19:36.833Z,31.36
2022-08-27T13:22:07.161Z,31.24
2022-08-27T13:24:45.611Z,31.23
2022-08-27T13:27:14.808Z,31.37
2022-08-27T13:29:43.651Z,31.63
2022-08-27T13:32:15.248Z,31.72
2022-08-27T13:34:44.137Z,31.74
2022-08-27T13:37:25.367Z,31.69
2022-08-27T13:39:56.327Z,31.63
2022-08-27T13:42:25.527Z,31.52
2022-08-27T13:45:00.955Z,31.58
2022-08-27T13:47:30.734Z,31.55
2022-08-27T13:50:08.982Z,31.64
2022-08-27T13:53:00.762Z,31.69
2022-08-27T13:55:30.421Z,31.62
2022-08-27T13:58:18.816Z,31.80
2022-08-27T14:00:47.411Z,31.87
2022-08-27T14:03:32.483Z,31.90
2022-08-27T14:06:01.852Z,31.84
2022-08-27T14:08:33.869Z,31.78
2022-08-27T14:11:10.025Z,31.79
2022-08-27T14:13:48.601Z,31.68
2022-08-27T14:16:32.343Z,31.78
2022-08-27T14:19:11.553Z,31.75
2022-08-27T14:21:42.048Z,31.73
2022-08-27T14:24:12.071Z,31.70
2022-08-27T14:26:40.518Z,31.56
2022-08-27T14:29:12.120Z,31.46
2022-08-27T14:31:41.724Z,31.34
2022-08-27T14:34:10.238Z,31.28
2022-08-27T14:36:40.703Z,31.13
2022-08-27T14:39:10.560Z,30.99
2022-08-27T14:41:39.678Z,30.93
2022-08-27T14:44:08.410Z,30.83
2022-08-27T14:46:41.555Z,30.86
2022-08-27T14:49:20.125Z,30.79
2022-08-27T14:51:49.121Z,30.80
2022-08-27T14:54:17.873Z,30.79
2022-08-27T14:56:46.445Z,30.76
2022-08-27T14:59:14.600Z,30.83
2022-08-27T15:01:43.450Z,30.87
2022-08-27T15:04:12.137Z,30.87
2022-08-27T15:06:40.296Z,31.05
2022-08-27T15:09:09.137Z,31.12
2022-08-27T15:11:40.451Z,31.13
2022-08-27T15:14:16.381Z,31.12
2022-08-27T15:16:44.820Z,31.07
2022-08-27T15:19:15.420Z,30.98
2022-08-27T15:21:47.500Z,30.99
2022-08-27T15:24:25.624Z,31.00
2022-08-27T15:26:59.776Z,30.94
2022-08-27T15:29:28.344Z,30.86
2022-08-27T15:31:57.353Z,30.70
2022-08-27T15:34:25.627Z,30.66
2022-08-27T15:36:54.415Z,30.53
2022-08-27T15:39:22.814Z,30.46
2022-08-27T15:42:05.919Z,30.45
2022-08-27T15:44:38.757Z,30.43
2022-08-27T15:47:07.377Z,30.36
2022-08-27T15:49:36.206Z,30.33
2022-08-27T15:52:05.335Z,30.29
2022-08-27T15:54:34.250Z,30.21
2022-08-27T15:57:03.850Z,30.21
2022-08-27T15:59:33.173Z,30.14
2022-08-27T16:02:04.391Z,30.10
2022-08-27T16:04:32.921Z,30.05
2022-08-27T16:07:01.025Z,29.97
2022-08-27T16:09:29.235Z,29.93
2022-08-27T16:11:58.529Z,29.86
2022-08-27T16:14:26.638Z,29.81
2022-08-27T16:16:57.793Z,29.85
2022-08-27T16:19:26.713Z,29.82
2022-08-27T16:21:54.764Z,29.82
2022-08-27T16:24:23.506Z,29.72
2022-08-27T16:26:52.036Z,29.60
2022-08-27T16:29:20.218Z,29.53
2022-08-27T16:31:49.885Z,29.51
2022-08-27T16:34:23.904Z,29.38
2022-08-27T16:36:52.357Z,29.28
2022-08-27T16:39:20.874Z,29.14
2022-08-27T16:41:50.000Z,29.16
2022-08-27T16:44:18.215Z,29.10
2022-08-27T16:46:46.680Z,28.98
2022-08-27T16:49:33.745Z,28.90
2022-08-27T16:52:03.169Z,28.96
2022-08-27T16:54:31.183Z,28.83
2022-08-27T16:57:00.119Z,28.80
2022-08-27T16:59:28.770Z,28.87
2022-08-27T17:01:57.459Z,28.78
2022-08-27T17:04:30.489Z,28.75
2022-08-27T17:07:03.474Z,28.81
2022-08-27T17:09:31.957Z,28.88
2022-08-27T17:12:00.952Z,28.76
2022-08-27T17:14:34.972Z,28.74
2022-08-27T17:17:04.542Z,28.76
2022-08-27T17:19:34.892Z,28.59
2022-08-27T17:22:04.569Z,28.43
2022-08-27T17:24:33.023Z,28.32
2022-08-27T17:27:01.659Z,27.99
2022-08-27T17:29:30.026Z,27.85
2022-08-27T17:31:58.538Z,27.70
2022-08-27T17:34:27.000Z,27.77
2022-08-27T17:36:55.296Z,27.71
2022-08-27T17:39:23.705Z,27.58
2022-08-27T17:41:52.998Z,27.54
2022-08-27T17:44:35.183Z,27.24
2022-08-27T17:47:07.143Z,27.20
2022-08-27T17:49:36.406Z,27.18
2022-08-27T17:52:10.653Z,27.00
2022-08-27T17:54:47.836Z,26.85
2022-08-27T17:57:27.068Z,26.72
2022-08-27T17:59:57.963Z,26.71
2022-08-27T18:02:34.474Z,26.67
2022-08-27T18:05:04.732Z,26.57
2022-08-27T18:07:36.676Z,26.40
2022-08-27T18:10:10.173Z,26.59
2022-08-27T18:12:41.975Z,26.69
2022-08-27T18:15:31.560Z,26.70
2022-08-27T18:18:00.671Z,26.74
2022-08-27T18:20:31.204Z,26.65
2022-08-27T18:23:00.247Z,26.64
2022-08-27T18:25:35.375Z,26.58
2022-08-27T18:28:08.101Z,26.38
2022-08-27T18:30:39.594Z,26.23
2022-08-27T18:33:08.598Z,26.13
2022-08-27T18:35:37.902Z,26.03
2022-08-27T18:38:06.650Z,26.05
2022-08-27T18:40:47.719Z,25.92
2022-08-27T18:43:17.208Z,25.84
2022-08-27T18:45:46.021Z,25.69
2022-08-27T18:48:18.995Z,25.55
2022-08-27T18:50:50.551Z,25.53
2022-08-27T18:53:22.977Z,25.48
2022-08-27T18:55:52.618Z,25.42
2022-08-27T18:58:21.755Z,25.45
2022-08-27T19:00:54.075Z,25.30
2022-08-27T19:03:31.447Z,25.12
2022-08-27T19:06:00.602Z,24.95
2022-08-27T19:08:29.503Z,25.07
2022-08-27T19:10:57.926Z,24.99
2022-08-27T19:13:26.457Z,24.87
2022-08-27T19:15:59.461Z,24.79
2022-08-27T19:18:29.694Z,24.84
2022-08-27T19:20:58.886Z,24.82
2022-08-27T19:23:27.415Z,24.76
2022-08-27T19:25:58.016Z,24.53
2022-08-27T19:28:38.631Z,24.57
2022-08-27T19:31:08.709Z,24.36
2022-08-27T19:33:37.931Z,24.40
2022-08-27T19:36:12.513Z,24.41
2022-08-27T19:38:45.240Z,24.48
2022-08-27T19:41:14.416Z,24.51
2022-08-27T19:43:44.054Z,24.38
2022-08-27T19:46:17.874Z,24.43
2022-08-27T19:48:46.173Z,24.39
2022-08-27T19:51:14.816Z,24.35
2022-08-27T19:53:43.363Z,24.33
2022-08-27T19:56:15.874Z,24.31
2022-08-27T19:58:44.839Z,24.12
2022-08-27T20:01:12.979Z,24.11
2022-08-27T20:03:41.986Z,23.70
2022-08-27T20:06:10.291Z,23.69
2022-08-27T20:08:38.554Z,23.50
2022-08-27T20:11:06.990Z,23.45
2022-08-27T20:13:35.813Z,23.37
2022-08-27T20:16:06.798Z,23.52
2022-08-27T20:18:42.975Z,23.59
2022-08-27T20:21:11.410Z,23.66
2022-08-27T20:23:39.623Z,23.77
2022-08-27T20:26:07.930Z,23.77
2022-08-27T20:28:40.346Z,23.73
2022-08-27T20:31:09.094Z,23.80
2022-08-27T20:33:37.644Z,23.87
2022-08-27T20:36:10.155Z,23.81
2022-08-27T20:38:39.474Z,23.61
2022-08-27T20:41:08.358Z,23.64
2022-08-27T20:43:37.127Z,23.40
2022-08-27T20:46:06.109Z,23.40
2022-08-27T20:48:38.662Z,23.50
2022-08-27T20:51:07.357Z,23.42
2022-08-27T20:53:36.333Z,23.28
2022-08-27T20:56:04.819Z,23.32
2022-08-27T20:58:52.525Z,23.42
2022-08-27T21:01:21.108Z,23.48
2022-08-27T21:03:51.983Z,23.34
2022-08-27T21:06:24.947Z,23.24
2022-08-27T21:08:55.142Z,22.85
2022-08-27T21:11:23.499Z,22.61
2022-08-27T21:13:56.472Z,22.53
2022-08-27T21:16:26.316Z,22.58
2022-08-27T21:18:55.749Z,22.63
2022-08-27T21:21:24.265Z,22.80
2022-08-27T21:23:52.860Z,22.90
2022-08-27T21:26:23.048Z,22.97
2022-08-27T21:28:55.576Z,22.97
2022-08-27T21:31:25.727Z,22.99
2022-08-27T21:33:54.414Z,22.93
2022-08-27T21:36:22.923Z,22.95
2022-08-27T21:38:51.512Z,22.99
2022-08-27T21:41:22.151Z,23.10
2022-08-27T21:43:50.835Z,23.25
2022-08-27T21:46:20.138Z,23.37
2022-08-27T21:48:57.783Z,23.32
2022-08-27T21:51:27.816Z,23.24
2022-08-27T21:53:57.027Z,23.20
2022-08-27T21:56:28.933Z,23.04
2022-08-27T21:58:57.410Z,23.02
2022-08-27T22:01:25.466Z,22.97
2022-08-27T22:03:55.391Z,22.96
2022-08-27T22:06:23.493Z,22.95
2022-08-27T22:08:51.683Z,22.87
2022-08-27T22:11:23.953Z,22.78
2022-08-27T22:13:53.344Z,22.68
2022-08-27T22:16:22.356Z,22.68
2022-08-27T22:18:54.254Z,22.46
2022-08-27T22:21:24.839Z,22.42
2022-08-27T22:23:53.428Z,22.53
2022-08-27T22:26:22.041Z,22.28
2022-08-27T22:28:50.940Z,22.07
2022-08-27T22:31:19.333Z,22.19
2022-08-27T22:33:48.047Z,22.26
2022-08-27T22:36:16.642Z,22.26
2022-08-27T22:38:44.805Z,22.33
2022-08-27T22:41:13.947Z,22.37
2022-08-27T22:43:42.642Z,22.35
2022-08-27T22:46:12.058Z,22.32
2022-08-27T22:48:40.306Z,22.25
2022-08-27T22:51:09.222Z,22.29
2022-08-27T22:53:40.487Z,22.40
2022-08-27T22:56:09.396Z,22.37
2022-08-27T22:58:37.559Z,22.38
2022-08-27T23:01:07.696Z,22.41
2022-08-27T23:03:36.398Z,22.36
2022-08-27T23:06:04.688Z,22.30
2022-08-27T23:08:32.998Z,22.30
2022-08-27T23:11:03.197Z,22.28
2022-08-27T23:13:32.483Z,22.21
2022-08-27T23:16:03.044Z,22.16
2022-08-27T23:18:32.365Z,22.01
2022-08-27T23:21:00.475Z,22.04
2022-08-27T23:23:30.790Z,22.01
2022-08-27T23:26:18.330Z,21.85
2022-08-27T23:28:46.742Z,21.52
2022-08-27T23:31:15.779Z,21.41
2022-08-27T23:33:44.348Z,21.42
2022-08-27T23:36:13.045Z,21.48
2022-08-27T23:38:41.700Z,21.67
2022-08-27T23:41:10.715Z,21.89
2022-08-27T23:43:39.068Z,22.04
2022-08-27T23:46:07.832Z,22.09
2022-08-27T23:48:36.394Z,22.12
2022-08-27T23:51:04.624Z,21.82
2022-08-27T23:53:33.123Z,22.03
2022-08-27T23:56:01.356Z,22.09
2022-08-27T23:58:29.489Z,22.26
